createdAt,value
2019-03-19T00:01:14.393Z,2.50
2019-03-19T00:03:43.961Z,2.10
2019-03-19T00:06:13.416Z,2.50
2019-03-19T00:08:42.939Z,2.20
2019-03-19T00:11:12.418Z,2.60
2019-03-19T00:13:41.906Z,2.53
2019-03-19T00:16:11.435Z,2.40
2019-03-19T00:18:40.888Z,2.73
2019-03-19T00:21:10.440Z,3.13
2019-03-19T00:23:40.099Z,2.90
2019-03-19T00:26:09.607Z,3.07
2019-03-19T00:28:39.244Z,2.50
2019-03-19T00:31:10.017Z,2.60
2019-03-19T00:33:39.496Z,2.50
2019-03-19T00:36:08.992Z,2.50
2019-03-19T00:38:38.486Z,2.93
2019-03-19T00:41:27.250Z,2.77
2019-03-19T00:43:56.727Z,3.10
2019-03-19T00:46:26.184Z,3.00
2019-03-19T00:48:55.665Z,2.93
2019-03-19T00:51:25.143Z,2.63
2019-03-19T00:53:54.605Z,2.77
2019-03-19T00:56:24.070Z,3.07
2019-03-19T00:58:53.982Z,2.47
2019-03-19T01:01:23.466Z,2.80
2019-03-19T01:03:52.924Z,2.50
2019-03-19T01:06:22.399Z,2.73
2019-03-19T01:09:11.167Z,2.87
2019-03-19T01:11:40.664Z,2.80
2019-03-19T01:14:10.146Z,2.90
2019-03-19T01:16:39.599Z,3.03
2019-03-19T01:19:09.076Z,2.87
2019-03-19T01:21:38.557Z,3.03
2019-03-19T01:24:08.040Z,3.13
2019-03-19T01:26:37.551Z,2.90
2019-03-19T01:29:07.033Z,3.10
2019-03-19T01:31:36.963Z,2.80
2019-03-19T01:34:07.964Z,2.90
2019-03-19T01:36:37.459Z,3.13
2019-03-19T01:39:07.807Z,3.13
2019-03-19T01:41:37.301Z,3.37
2019-03-19T01:44:06.827Z,4.20
2019-03-19T01:46:36.306Z,3.20
2019-03-19T01:49:05.832Z,3.07
2019-03-19T01:51:35.316Z,3.43
2019-03-19T01:54:04.969Z,3.60
2019-03-19T01:56:34.828Z,3.27
2019-03-19T01:59:10.245Z,3.13
2019-03-19T02:01:39.749Z,3.10
2019-03-19T02:04:09.203Z,3.20
2019-03-19T02:06:38.684Z,3.23
2019-03-19T02:09:09.109Z,3.50
2019-03-19T02:11:38.706Z,3.50
2019-03-19T02:14:08.276Z,3.10
2019-03-19T02:16:37.781Z,3.03
2019-03-19T02:19:07.281Z,3.10
2019-03-19T02:21:36.840Z,2.87
2019-03-19T02:24:06.321Z,2.80
2019-03-19T02:26:35.780Z,3.20
2019-03-19T02:29:05.432Z,3.37
2019-03-19T02:31:34.902Z,3.40
2019-03-19T02:34:05.729Z,3.60
2019-03-19T02:36:35.211Z,3.70
2019-03-19T02:39:06.875Z,3.90
2019-03-19T02:41:36.341Z,3.80
2019-03-19T02:44:06.257Z,4.10
2019-03-19T02:46:36.193Z,4.03
2019-03-19T02:49:08.710Z,3.47
2019-03-19T02:51:38.183Z,3.20
2019-03-19T02:54:07.679Z,3.03
2019-03-19T02:56:45.989Z,3.20
2019-03-19T02:59:21.488Z,2.93
2019-03-19T03:01:50.937Z,3.30
2019-03-19T03:04:20.405Z,3.13
2019-03-19T03:06:49.976Z,3.40
2019-03-19T03:09:19.437Z,3.50
2019-03-19T03:11:48.885Z,3.60
2019-03-19T03:14:18.473Z,6.87
2019-03-19T03:17:07.219Z,4.17
2019-03-19T03:19:36.730Z,3.87
2019-03-19T03:22:06.210Z,3.50
2019-03-19T03:24:35.658Z,4.27
2019-03-19T03:27:05.325Z,3.80
2019-03-19T03:29:34.896Z,4.53
2019-03-19T03:32:04.709Z,4.00
2019-03-19T03:34:34.956Z,4.07
2019-03-19T03:37:04.530Z,4.20
2019-03-19T03:39:33.978Z,3.87
2019-03-19T03:42:03.463Z,4.03
2019-03-19T03:44:32.946Z,4.10
2019-03-19T03:47:02.405Z,4.20
2019-03-19T03:49:31.909Z,4.07
2019-03-19T03:52:01.369Z,4.37
2019-03-19T03:54:30.862Z,4.30
2019-03-19T03:57:02.555Z,6.80
2019-03-19T03:59:31.787Z,4.97
2019-03-19T04:02:01.261Z,4.70
2019-03-19T04:04:30.800Z,4.33
2019-03-19T04:07:00.447Z,4.37
2019-03-19T04:09:29.904Z,4.10
2019-03-19T04:11:59.776Z,4.27
2019-03-19T04:14:29.245Z,4.73
2019-03-19T04:16:58.693Z,4.60
2019-03-19T04:19:28.329Z,4.33
2019-03-19T04:21:57.810Z,4.37
2019-03-19T04:24:27.181Z,4.40
2019-03-19T04:26:56.646Z,4.90
2019-03-19T04:29:26.119Z,4.73
2019-03-19T04:31:55.605Z,4.67
2019-03-19T04:34:25.076Z,4.60
2019-03-19T04:36:55.248Z,4.47
2019-03-19T04:39:24.744Z,4.10
2019-03-19T04:41:54.272Z,4.63
2019-03-19T04:44:23.714Z,4.60
2019-03-19T04:46:53.167Z,4.30
2019-03-19T04:49:22.666Z,4.30
2019-03-19T04:51:52.158Z,4.23
2019-03-19T04:54:21.616Z,4.17
2019-03-19T04:56:51.412Z,6.70
2019-03-19T04:59:20.878Z,4.60
2019-03-19T05:01:50.367Z,5.17
2019-03-19T05:04:19.852Z,4.60
2019-03-19T05:06:49.310Z,4.67
2019-03-19T05:09:18.793Z,4.50
2019-03-19T05:11:48.474Z,4.30
2019-03-19T05:14:17.924Z,4.50
2019-03-19T05:16:47.380Z,4.90
2019-03-19T05:19:16.854Z,4.90
2019-03-19T05:22:05.676Z,4.20
2019-03-19T05:24:35.192Z,4.63
2019-03-19T05:27:04.720Z,4.97
2019-03-19T05:29:34.167Z,4.20
2019-03-19T05:32:03.691Z,4.00
2019-03-19T05:34:34.682Z,4.60
2019-03-19T05:37:04.147Z,4.30
2019-03-19T05:39:33.659Z,4.00
2019-03-19T05:42:03.116Z,4.60
2019-03-19T05:44:32.602Z,3.60
2019-03-19T05:47:02.130Z,4.00
2019-03-19T05:49:31.582Z,4.23
2019-03-19T05:52:01.065Z,4.27
2019-03-19T05:54:30.818Z,4.80
2019-03-19T05:57:19.613Z,4.07
2019-03-19T05:59:49.111Z,4.53
2019-03-19T06:02:18.585Z,4.57
2019-03-19T06:04:48.066Z,4.30
2019-03-19T06:07:17.590Z,4.20
2019-03-19T06:09:47.080Z,4.10
2019-03-19T06:12:16.576Z,4.17
2019-03-19T06:14:46.086Z,4.03
2019-03-19T06:17:15.542Z,3.77
2019-03-19T06:19:45.022Z,3.97
2019-03-19T06:22:14.904Z,4.93
2019-03-19T06:24:44.360Z,4.17
2019-03-19T06:27:13.811Z,4.30
2019-03-19T06:29:43.308Z,4.00
2019-03-19T06:32:12.774Z,4.10
2019-03-19T06:34:42.261Z,3.77
2019-03-19T06:37:12.936Z,3.50
2019-03-19T06:39:42.397Z,4.07
2019-03-19T06:42:17.785Z,3.40
2019-03-19T06:44:47.259Z,3.53
2019-03-19T06:47:16.711Z,5.07
2019-03-19T06:49:46.174Z,6.63
2019-03-19T06:52:15.689Z,4.90
2019-03-19T06:54:45.151Z,4.00
2019-03-19T06:57:39.214Z,3.60
2019-03-19T07:00:10.052Z,4.50
2019-03-19T07:02:39.574Z,5.27
2019-03-19T07:05:10.573Z,7.40
2019-03-19T07:07:40.026Z,4.80
2019-03-19T07:10:13.634Z,4.30
2019-03-19T07:12:43.117Z,5.20
2019-03-19T07:15:17.108Z,4.40
2019-03-19T07:17:47.017Z,4.43
2019-03-19T07:20:19.524Z,5.53
2019-03-19T07:22:49.035Z,5.20
2019-03-19T07:25:18.978Z,5.87
2019-03-19T07:27:48.461Z,4.20
2019-03-19T07:30:28.501Z,4.75
2019-03-19T07:32:57.988Z,5.00
2019-03-19T07:35:27.486Z,5.10
2019-03-19T07:37:57.447Z,5.35
2019-03-19T07:40:40.054Z,4.35
2019-03-19T07:43:09.562Z,4.45
2019-03-19T07:45:39.030Z,4.40
2019-03-19T07:48:08.606Z,4.25
2019-03-19T07:50:57.410Z,4.55
2019-03-19T07:53:26.919Z,4.30
2019-03-19T07:56:15.717Z,4.12
2019-03-19T07:58:45.826Z,3.42
2019-03-19T08:01:15.367Z,3.75
2019-03-19T08:03:44.888Z,3.77
2019-03-19T08:06:16.988Z,3.30
2019-03-19T08:08:46.440Z,4.42
2019-03-19T08:11:16.816Z,5.17
2019-03-19T08:14:05.654Z,5.30
2019-03-19T08:16:44.195Z,4.42
2019-03-19T08:19:13.656Z,4.47
2019-03-19T08:21:43.129Z,5.33
2019-03-19T08:24:12.630Z,5.75
2019-03-19T08:26:42.123Z,4.97
2019-03-19T08:29:11.613Z,5.25
2019-03-19T08:31:41.117Z,5.17
2019-03-19T08:34:10.590Z,5.10
2019-03-19T08:36:40.079Z,5.28
2019-03-19T08:39:09.597Z,4.80
2019-03-19T08:41:39.051Z,4.75
2019-03-19T08:44:08.549Z,4.35
2019-03-19T08:46:38.037Z,4.75
2019-03-19T08:49:07.536Z,4.17
2019-03-19T08:51:37.017Z,4.20
2019-03-19T08:54:06.584Z,4.33
2019-03-19T08:56:36.079Z,4.65
2019-03-19T08:59:06.280Z,4.30
2019-03-19T09:01:35.916Z,4.15
2019-03-19T09:04:05.452Z,4.80
2019-03-19T09:06:34.951Z,4.78
2019-03-19T09:09:06.418Z,3.85
2019-03-19T09:11:37.540Z,4.47
2019-03-19T09:14:26.611Z,3.47
2019-03-19T09:16:56.104Z,4.10
2019-03-19T09:19:25.622Z,4.00
2019-03-19T09:21:55.093Z,3.70
2019-03-19T09:24:24.587Z,4.05
2019-03-19T09:26:54.049Z,3.52
2019-03-19T09:29:25.396Z,3.10
2019-03-19T09:32:14.135Z,3.20
2019-03-19T09:34:43.648Z,3.27
2019-03-19T09:37:13.203Z,3.10
2019-03-19T09:40:02.187Z,4.05
2019-03-19T09:42:31.670Z,2.60
2019-03-19T09:45:01.177Z,3.10
2019-03-19T09:47:30.679Z,2.87
2019-03-19T09:50:00.324Z,2.67
2019-03-19T09:52:29.998Z,2.35
2019-03-19T09:54:59.494Z,2.15
2019-03-19T09:57:29.007Z,2.70
2019-03-19T09:59:58.578Z,2.62
2019-03-19T10:02:28.069Z,2.12
2019-03-19T10:05:16.855Z,2.00
2019-03-19T10:07:46.653Z,2.50
2019-03-19T10:12:56.134Z,2.40
2019-03-19T10:15:44.912Z,2.22
2019-03-19T10:18:14.400Z,2.02
2019-03-19T10:20:43.876Z,2.50
2019-03-19T10:23:13.365Z,2.20
2019-03-19T10:25:42.904Z,1.65
2019-03-19T10:28:12.386Z,2.17
2019-03-19T10:30:41.924Z,2.10
2019-03-19T10:33:11.416Z,2.20
2019-03-19T10:35:40.899Z,2.55
2019-03-19T10:38:10.369Z,2.20
2019-03-19T10:40:40.321Z,2.50
2019-03-19T10:43:09.849Z,2.20
2019-03-19T10:45:39.305Z,2.00
2019-03-19T10:48:08.841Z,2.08
2019-03-19T10:50:38.338Z,2.22
2019-03-19T10:53:07.805Z,2.35
2019-03-19T10:55:37.301Z,2.20
2019-03-19T10:58:11.364Z,2.20
2019-03-19T11:00:40.043Z,2.12
2019-03-19T11:03:09.597Z,2.12
2019-03-19T11:05:39.058Z,1.75
2019-03-19T11:08:08.595Z,1.80
2019-03-19T11:10:40.774Z,2.02
2019-03-19T11:13:10.274Z,1.82
2019-03-19T11:15:39.842Z,2.17
2019-03-19T11:18:09.368Z,1.75
2019-03-19T11:20:40.410Z,1.87
2019-03-19T11:23:11.381Z,2.10
2019-03-19T11:25:40.886Z,1.80
2019-03-19T11:28:10.378Z,2.00
2019-03-19T11:30:39.867Z,2.35
2019-03-19T11:33:09.389Z,2.20
2019-03-19T11:35:38.877Z,2.15
2019-03-19T11:38:08.566Z,2.10
2019-03-19T11:40:38.198Z,1.80
2019-03-19T11:43:07.746Z,1.90
2019-03-19T11:45:37.233Z,2.50
2019-03-19T11:48:08.477Z,1.92
2019-03-19T11:50:38.017Z,1.87
2019-03-19T11:53:07.679Z,1.90
2019-03-19T11:55:37.179Z,1.47
2019-03-19T11:58:06.836Z,1.90
2019-03-19T12:00:38.086Z,1.72
2019-03-19T12:03:15.265Z,1.82
2019-03-19T12:05:41.043Z,2.12
2019-03-19T12:08:10.635Z,1.77
2019-03-19T12:10:40.209Z,1.75
2019-03-19T12:13:09.673Z,1.80
2019-03-19T12:15:39.356Z,1.80
2019-03-19T12:18:08.941Z,1.72
2019-03-19T12:20:38.444Z,2.15
2019-03-19T12:23:07.968Z,1.37
2019-03-19T12:25:37.492Z,1.60
2019-03-19T12:28:26.292Z,1.57
2019-03-19T12:30:55.808Z,1.70
2019-03-19T12:33:25.282Z,1.80
2019-03-19T12:35:54.831Z,1.60
2019-03-19T12:38:24.356Z,1.75
2019-03-19T12:40:53.861Z,1.90
2019-03-19T12:43:23.519Z,1.77
2019-03-19T12:45:54.875Z,1.95
2019-03-19T12:48:24.337Z,1.70
2019-03-19T12:50:53.829Z,1.40
2019-03-19T12:53:23.348Z,1.85
2019-03-19T12:55:52.833Z,1.60
2019-03-19T12:58:22.422Z,1.62
2019-03-19T13:00:51.954Z,1.50
2019-03-19T13:03:21.422Z,1.82
2019-03-19T13:05:50.906Z,1.62
2019-03-19T13:08:20.788Z,1.90
2019-03-19T13:10:50.254Z,1.50
2019-03-19T13:13:19.722Z,1.60
2019-03-19T13:15:49.239Z,1.60
2019-03-19T13:18:18.725Z,1.57
2019-03-19T13:20:48.189Z,1.60
2019-03-19T13:23:17.699Z,1.70
2019-03-19T13:25:47.207Z,1.52
2019-03-19T13:28:16.664Z,1.72
2019-03-19T13:30:46.161Z,1.40
2019-03-19T13:33:15.901Z,1.50
2019-03-19T13:35:45.406Z,1.62
2019-03-19T13:38:14.917Z,1.37
2019-03-19T13:40:44.441Z,1.50
2019-03-19T13:43:13.924Z,1.47
2019-03-19T13:45:44.296Z,1.40
2019-03-19T13:48:13.788Z,1.50
2019-03-19T13:51:02.612Z,1.40
2019-03-19T13:53:32.085Z,1.65
2019-03-19T13:56:01.586Z,1.60
2019-03-19T13:58:31.105Z,1.87
2019-03-19T14:01:21.402Z,1.47
2019-03-19T14:03:50.906Z,1.57
2019-03-19T14:06:20.317Z,1.30
2019-03-19T14:08:49.827Z,1.65
2019-03-19T14:11:19.337Z,1.30
2019-03-19T14:13:48.863Z,1.80
2019-03-19T14:16:18.369Z,1.35
2019-03-19T14:18:47.872Z,1.67
2019-03-19T14:21:17.331Z,1.30
2019-03-19T14:23:46.793Z,1.70
2019-03-19T14:26:16.292Z,1.75
2019-03-19T14:28:45.770Z,1.50
2019-03-19T14:31:16.790Z,1.30
2019-03-19T14:33:46.340Z,1.80
2019-03-19T14:36:15.820Z,1.40
2019-03-19T14:38:47.237Z,1.70
2019-03-19T14:41:16.859Z,1.60
2019-03-19T14:43:46.337Z,1.50
2019-03-19T14:46:15.823Z,1.40
2019-03-19T14:48:57.534Z,1.45
2019-03-19T14:51:27.020Z,1.40
2019-03-19T14:53:56.613Z,1.70
2019-03-19T14:56:26.122Z,1.50
2019-03-19T14:58:55.621Z,1.30
2019-03-19T15:01:25.106Z,1.45
2019-03-19T15:03:54.580Z,1.60
2019-03-19T15:06:24.050Z,1.52
2019-03-19T15:08:55.336Z,1.12
2019-03-19T15:11:44.221Z,1.25
2019-03-19T15:14:13.742Z,1.60
2019-03-19T15:16:43.216Z,1.50
2019-03-19T15:19:12.723Z,1.30
2019-03-19T15:21:42.214Z,1.43
2019-03-19T15:24:11.673Z,1.30
2019-03-19T15:26:41.185Z,1.40
2019-03-19T15:29:10.677Z,1.50
2019-03-19T15:31:40.144Z,1.33
2019-03-19T15:34:09.663Z,1.27
2019-03-19T15:36:39.116Z,1.63
2019-03-19T15:39:09.042Z,1.80
2019-03-19T15:41:38.515Z,1.40
2019-03-19T15:44:07.995Z,1.50
2019-03-19T15:46:37.535Z,1.40
2019-03-19T15:49:07.055Z,1.33
2019-03-19T15:51:36.547Z,1.47
2019-03-19T15:54:06.110Z,1.50
2019-03-19T15:56:35.656Z,1.33
2019-03-19T15:59:05.144Z,1.30
2019-03-19T16:01:40.276Z,1.27
2019-03-19T16:04:07.105Z,1.70
2019-03-19T16:06:36.712Z,1.40
2019-03-19T16:09:08.813Z,1.43
2019-03-19T16:11:57.630Z,1.47
2019-03-19T16:14:27.088Z,1.50
2019-03-19T16:16:56.580Z,1.40
2019-03-19T16:19:26.298Z,1.10
2019-03-19T16:21:55.761Z,1.37
2019-03-19T16:24:25.260Z,1.50
2019-03-19T16:26:56.446Z,1.00
2019-03-19T16:29:26.154Z,1.53
2019-03-19T16:31:55.619Z,1.50
2019-03-19T16:34:25.149Z,1.50
2019-03-19T16:36:54.651Z,1.40
2019-03-19T16:39:24.135Z,1.47
2019-03-19T16:41:53.639Z,1.60
2019-03-19T16:44:23.142Z,0.97
2019-03-19T16:46:53.404Z,1.50
2019-03-19T16:49:22.889Z,1.43
2019-03-19T16:51:52.399Z,1.47
2019-03-19T16:54:21.855Z,1.37
2019-03-19T16:56:51.369Z,1.30
2019-03-19T16:59:20.858Z,1.10
2019-03-19T17:01:50.314Z,1.37
2019-03-19T17:04:21.578Z,1.47
2019-03-19T17:07:10.351Z,1.53
2019-03-19T17:09:39.863Z,1.10
2019-03-19T17:12:09.331Z,1.27
2019-03-19T17:14:38.785Z,1.47
2019-03-19T17:17:08.277Z,1.37
2019-03-19T17:19:37.812Z,1.40
2019-03-19T17:22:07.330Z,1.60
2019-03-19T17:24:36.858Z,1.30
2019-03-19T17:27:06.375Z,1.10
2019-03-19T17:29:35.832Z,1.37
2019-03-19T17:32:12.805Z,1.30
2019-03-19T17:34:39.544Z,1.20
2019-03-19T17:37:09.003Z,1.13
2019-03-19T17:39:38.551Z,1.23
2019-03-19T17:42:08.068Z,1.20
2019-03-19T17:44:37.527Z,1.37
2019-03-19T17:47:08.241Z,1.20
2019-03-19T17:49:37.722Z,1.07
2019-03-19T17:52:07.207Z,1.33
2019-03-19T17:54:36.713Z,1.30
2019-03-19T17:57:06.260Z,1.20
2019-03-19T17:59:35.745Z,1.50
2019-03-19T18:02:05.489Z,1.40
2019-03-19T18:04:34.978Z,1.20
2019-03-19T18:07:04.500Z,1.10
2019-03-19T18:09:34.064Z,1.20
2019-03-19T18:12:03.593Z,1.60
2019-03-19T18:14:33.051Z,1.30
2019-03-19T18:17:02.604Z,1.33
2019-03-19T18:19:32.084Z,1.43
2019-03-19T18:22:01.578Z,1.23
2019-03-19T18:24:31.098Z,1.30
2019-03-19T18:27:00.749Z,1.33
2019-03-19T18:29:33.128Z,1.20
2019-03-19T18:32:02.607Z,1.00
2019-03-19T18:34:32.074Z,1.20
2019-03-19T18:37:01.609Z,1.43
2019-03-19T18:39:31.399Z,1.57
2019-03-19T18:42:00.868Z,1.30
2019-03-19T18:44:30.343Z,1.43
2019-03-19T18:46:59.877Z,1.40
2019-03-19T18:49:29.328Z,1.60
2019-03-19T18:51:58.788Z,1.87
2019-03-19T18:54:28.314Z,1.40
2019-03-19T18:56:57.767Z,1.40
2019-03-19T18:59:27.263Z,1.20
2019-03-19T19:01:56.745Z,1.73
2019-03-19T19:04:26.323Z,1.70
2019-03-19T19:06:55.785Z,1.40
2019-03-19T19:09:25.279Z,1.33
2019-03-19T19:11:54.739Z,1.13
2019-03-19T19:14:24.228Z,1.40
2019-03-19T19:16:53.741Z,1.57
2019-03-19T19:19:23.219Z,1.47
2019-03-19T19:21:52.704Z,1.20
2019-03-19T19:24:22.176Z,1.30
2019-03-19T19:26:51.642Z,1.40
2019-03-19T19:29:21.098Z,1.43
2019-03-19T19:31:50.795Z,1.20
2019-03-19T19:34:20.261Z,1.27
2019-03-19T19:36:49.741Z,1.77
2019-03-19T19:39:19.244Z,1.40
2019-03-19T19:41:48.687Z,1.23
2019-03-19T19:44:18.215Z,1.30
2019-03-19T19:46:47.707Z,1.70
2019-03-19T19:49:17.201Z,1.33
2019-03-19T19:51:46.677Z,1.40
2019-03-19T19:54:16.207Z,1.57
2019-03-19T19:57:04.999Z,2.93
2019-03-19T19:59:34.575Z,2.63
2019-03-19T20:02:03.996Z,2.40
2019-03-19T20:04:33.482Z,1.80
2019-03-19T20:07:02.984Z,1.73
2019-03-19T20:09:32.464Z,1.60
2019-03-19T20:12:01.924Z,1.30
2019-03-19T20:14:31.426Z,1.57
2019-03-19T20:17:00.944Z,1.60
2019-03-19T20:19:30.444Z,1.40
2019-03-19T20:22:00.300Z,1.53
2019-03-19T20:24:29.755Z,1.77
2019-03-19T20:26:59.216Z,1.30
2019-03-19T20:29:28.696Z,1.70
2019-03-19T20:32:17.474Z,1.40
2019-03-19T20:34:46.978Z,1.53
2019-03-19T20:37:16.462Z,1.40
2019-03-19T20:39:45.945Z,1.57
2019-03-19T20:42:15.448Z,1.60
2019-03-19T20:44:44.929Z,1.50
2019-03-19T20:47:14.383Z,1.30
2019-03-19T20:49:47.897Z,1.57
2019-03-19T20:52:16.747Z,1.50
2019-03-19T20:54:46.232Z,1.50
2019-03-19T20:57:15.743Z,1.50
2019-03-19T20:59:45.225Z,1.63
2019-03-19T21:02:14.682Z,1.83
2019-03-19T21:04:44.180Z,1.60
2019-03-19T21:07:13.657Z,1.47
2019-03-19T21:09:43.141Z,1.67
2019-03-19T21:12:12.725Z,1.70
2019-03-19T21:14:42.179Z,2.03
2019-03-19T21:17:11.733Z,1.70
2019-03-19T21:19:41.251Z,1.83
2019-03-19T21:22:10.708Z,2.30
2019-03-19T21:24:40.173Z,1.90
2019-03-19T21:27:09.653Z,2.00
2019-03-19T21:29:39.108Z,1.97
2019-03-19T21:32:08.603Z,1.80
2019-03-19T21:34:38.112Z,1.60
2019-03-19T21:37:07.593Z,1.87
2019-03-19T21:39:37.074Z,1.70
2019-03-19T21:42:06.771Z,1.70
2019-03-19T21:44:36.257Z,2.00
2019-03-19T21:47:05.810Z,1.80
2019-03-19T21:49:35.325Z,2.07
2019-03-19T21:52:04.973Z,1.60
2019-03-19T21:54:35.425Z,1.60
2019-03-19T21:57:05.001Z,1.80
2019-03-19T21:59:34.489Z,1.87
2019-03-19T22:02:03.979Z,1.90
2019-03-19T22:04:33.448Z,1.80
2019-03-19T22:07:02.912Z,1.70
2019-03-19T22:09:32.377Z,1.80
2019-03-19T22:12:01.908Z,1.90
2019-03-19T22:14:31.371Z,2.07
2019-03-19T22:17:00.828Z,1.70
2019-03-19T22:19:30.410Z,2.33
2019-03-19T22:21:59.895Z,1.87
2019-03-19T22:24:29.350Z,1.63
2019-03-19T22:26:58.848Z,1.97
2019-03-19T22:29:28.345Z,1.90
2019-03-19T22:32:17.174Z,1.80
2019-03-19T22:34:46.632Z,1.77
2019-03-19T22:37:16.129Z,1.83
2019-03-19T22:39:45.643Z,2.33
2019-03-19T22:42:15.104Z,1.70
2019-03-19T22:44:44.564Z,1.90
2019-03-19T22:47:14.073Z,2.00
2019-03-19T22:49:43.553Z,2.30
2019-03-19T22:52:13.058Z,2.40
2019-03-19T22:54:42.824Z,2.77
2019-03-19T22:57:12.327Z,2.57
2019-03-19T22:59:41.774Z,2.40
2019-03-19T23:02:11.696Z,2.60
2019-03-19T23:04:41.186Z,2.27
2019-03-19T23:07:10.647Z,2.17
2019-03-19T23:09:40.292Z,2.30
2019-03-19T23:12:10.028Z,2.60
2019-03-19T23:14:39.496Z,2.53
2019-03-19T23:17:09.010Z,2.30
2019-03-19T23:19:38.428Z,2.40
2019-03-19T23:22:07.890Z,2.60
2019-03-19T23:24:37.425Z,2.67
2019-03-19T23:27:08.395Z,2.73
2019-03-19T23:29:37.879Z,2.30
2019-03-19T23:32:07.433Z,2.43
2019-03-19T23:34:38.735Z,2.60
2019-03-19T23:37:08.120Z,2.40
2019-03-19T23:39:37.646Z,2.40
2019-03-19T23:42:07.103Z,2.43
2019-03-19T23:44:36.575Z,2.60
2019-03-19T23:47:06.146Z,2.50
2019-03-19T23:49:35.631Z,2.77
2019-03-19T23:52:05.279Z,2.83
2019-03-19T23:54:35.017Z,2.47
2019-03-19T23:57:04.658Z,2.60
2019-03-19T23:59:34.140Z,2.83
